createdAt,value
2022-12-01T17:14:59.175Z,101100.59
2022-12-01T17:17:30.228Z,101104.19
2022-12-01T17:19:59.364Z,101098.06
2022-12-01T17:22:28.556Z,101108.78
2022-12-01T17:24:57.449Z,101102.75
2022-12-01T17:27:28.514Z,101110.97
2022-12-01T17:29:59.553Z,101112.22
2022-12-01T17:32:28.714Z,101116.13
2022-12-01T17:34:56.975Z,101111.38
2022-12-01T17:37:28.184Z,101114.50
2022-12-01T17:39:56.696Z,101117.00
2022-12-01T17:42:25.410Z,101112.34
2022-12-01T17:44:54.575Z,101114.91
2022-12-01T17:47:25.020Z,101109.41
2022-12-01T17:49:54.088Z,101119.19
2022-12-01T17:52:28.019Z,101121.63
2022-12-01T17:54:57.169Z,101122.50
2022-12-01T17:57:25.570Z,101124.22
2022-12-01T17:59:54.615Z,101134.00
2022-12-01T18:02:23.054Z,101133.06
2022-12-01T18:04:51.938Z,101125.06
2022-12-01T18:07:20.985Z,101136.56
2022-12-01T18:09:49.983Z,101131.25
2022-12-01T18:12:18.648Z,101138.38
2022-12-01T18:14:47.771Z,101132.09
2022-12-01T18:17:16.534Z,101143.69
2022-12-01T18:19:45.181Z,101137.53
2022-12-01T18:22:14.194Z,101139.34
2022-12-01T18:24:43.830Z,101146.44
2022-12-01T18:27:13.211Z,101148.16
2022-12-01T18:29:45.360Z,101149.09
2022-12-01T18:32:13.687Z,101150.03
2022-12-01T18:34:45.373Z,101151.84
2022-12-01T18:37:14.849Z,101148.34
2022-12-01T18:39:43.371Z,101141.31
2022-12-01T18:42:11.814Z,101145.78
2022-12-01T18:44:46.820Z,101143.19
2022-12-01T18:47:15.443Z,101139.69
2022-12-01T18:49:50.814Z,101150.31
2022-12-01T18:52:21.956Z,101152.22
2022-12-01T18:54:51.262Z,101151.44
2022-12-01T18:57:20.956Z,101158.56
2022-12-01T18:59:49.665Z,101153.38
2022-12-01T19:02:17.735Z,101156.97
2022-12-01T19:04:51.902Z,101156.97
2022-12-01T19:07:29.354Z,101160.56
2022-12-01T19:09:58.451Z,101152.59
2022-12-01T19:12:26.843Z,101158.97
2022-12-01T19:38:03.339Z,101149.16
2022-12-01T19:40:32.610Z,101145.88
2022-12-01T19:43:03.680Z,101154.97
2022-12-01T19:45:38.565Z,101155.31
2022-12-01T19:48:15.381Z,101162.66
2022-12-01T19:50:46.773Z,101163.09
2022-12-01T19:53:23.642Z,101160.06
2022-12-01T19:55:55.201Z,101152.78
2022-12-01T19:58:26.925Z,101155.44
2022-12-01T20:00:56.228Z,101158.94
2022-12-01T20:03:26.220Z,101161.53
2022-12-01T20:05:54.530Z,101167.00
2022-12-01T20:08:25.950Z,101179.34
2022-12-01T20:10:55.037Z,101179.28
2022-12-01T20:13:23.742Z,101180.97
2022-12-01T20:15:52.726Z,101185.34
2022-12-01T20:18:22.568Z,101184.50
2022-12-01T20:20:51.721Z,101180.03
2022-12-01T20:23:20.956Z,101186.19
2022-12-01T20:25:50.055Z,101174.72
2022-12-01T20:28:18.734Z,101179.94
2022-12-01T20:30:47.804Z,101185.25
2022-12-01T20:33:17.666Z,101190.66
2022-12-01T20:35:46.795Z,101188.94
2022-12-01T20:38:15.516Z,101192.56
2022-12-01T20:40:44.361Z,101194.44
2022-12-01T20:43:13.472Z,101199.72
2022-12-01T20:45:42.196Z,101201.63
2022-12-01T20:48:11.180Z,101199.84
2022-12-01T20:50:39.640Z,101204.34
2022-12-01T20:53:08.640Z,101200.84
2022-12-01T20:55:38.424Z,101208.81
2022-12-01T20:58:14.803Z,101203.59
2022-12-01T21:00:47.533Z,101208.81
2022-12-01T21:03:16.086Z,101203.59
2022-12-01T21:05:45.376Z,101203.59
2022-12-01T21:08:15.135Z,101200.16
2022-12-01T21:10:45.904Z,101197.50
2022-12-01T21:13:40.491Z,101198.47
2022-12-01T21:16:17.686Z,101197.69
2022-12-01T21:18:53.991Z,101203.00
2022-12-01T21:21:29.266Z,101198.81
2022-12-01T21:24:06.789Z,101203.19
2022-12-01T21:26:41.375Z,101197.97
2022-12-01T21:29:28.080Z,101192.72
2022-12-01T21:32:01.091Z,101197.19
2022-12-01T21:34:36.143Z,101200.88
2022-12-01T21:37:12.841Z,101197.34
2022-12-01T21:39:43.316Z,101202.75
2022-12-01T21:42:20.166Z,101199.34
2022-12-01T21:44:50.201Z,101208.22
2022-12-01T21:47:23.462Z,101207.47
2022-12-01T21:49:53.972Z,101204.03
2022-12-01T21:52:28.396Z,101203.16
2022-12-01T21:55:03.478Z,101204.97
2022-12-01T21:57:47.890Z,101201.56
2022-12-01T22:00:29.639Z,101206.00
2022-12-01T22:03:24.722Z,101206.06
2022-12-01T22:06:28.186Z,101212.31
2022-12-01T22:08:58.800Z,101213.19
2022-12-01T22:11:31.185Z,101207.03
2022-12-01T22:14:09.104Z,101209.78
2022-12-01T22:16:43.380Z,101206.25
2022-12-01T22:19:39.269Z,101204.53
2022-12-01T22:22:24.565Z,101200.16
2022-12-01T22:25:00.506Z,101203.69
2022-12-01T22:27:31.897Z,101201.88
2022-12-01T22:30:07.186Z,101207.28
2022-12-01T22:32:44.706Z,101207.38
2022-12-01T22:35:46.415Z,101204.72
2022-12-01T22:38:32.291Z,101201.97
2022-12-01T22:41:12.715Z,101202.75
2022-12-01T22:43:51.772Z,101206.31
2022-12-01T22:46:27.064Z,101212.94
2022-12-01T22:49:04.173Z,101212.94
2022-12-01T22:52:03.240Z,101209.44
2022-12-01T22:54:50.133Z,101205.81
2022-12-01T22:57:25.193Z,101212.84
2022-12-01T22:59:54.374Z,101206.59
2022-12-01T23:02:33.922Z,101207.44
2022-12-01T23:05:15.254Z,101206.44
2022-12-01T23:07:44.401Z,101209.84
2022-12-01T23:10:24.565Z,101211.47
2022-12-01T23:12:55.626Z,101214.97
2022-12-01T23:15:38.854Z,101218.50
2022-12-01T23:18:16.620Z,101216.63
2022-12-01T23:20:48.510Z,101216.63
2022-12-01T23:23:26.474Z,101212.25
2022-12-01T23:25:55.299Z,101208.56
2022-12-01T23:28:25.057Z,101212.16
2022-12-01T23:30:57.833Z,101219.19
2022-12-01T23:33:29.750Z,101208.66
2022-12-01T23:36:19.638Z,101213.88
2022-12-01T23:38:51.464Z,101212.16
2022-12-01T23:41:27.467Z,101206.75
2022-12-01T23:43:59.278Z,101212.88
2022-12-01T23:46:29.704Z,101209.25
2022-12-01T23:49:02.634Z,101213.63
2022-12-01T23:51:33.858Z,101208.22
2022-12-01T23:54:22.470Z,101209.94
2022-12-01T23:57:01.355Z,101209.84
2022-12-01T23:59:32.220Z,101202.75
